Terminal Aerodrome Forecast
Issued by NWS

Home | Current Version | Previous Version | Text Only | Print | Product List | Glossary On
Versions: 1 2 3 4 5 6 7 8 9 10 11 12 13 14 15 16 17 18 19 20 21 22 23 24 25 26 27 28 29 30 31 32 33
000
FTUS46 KLOX 020434 AAD
TAFLAX
TAF AMD
KLAX 020434Z 0205/0306 24006KT P6SM FEW012 SCT250
     FM020800 VRB03KT 6SM BR BKN008
     FM021100 VRB03KT P6SM OVC012
     FM021800 25008KT P6SM SCT250
     FM022100 26012KT P6SM SCT250
     FM030400 25008KT P6SM SCT010 SCT250=

USA.gov is the U.S. government's official web portal to all federal, state and local government web resources and services.